sensor_id;sensor_type;location;lat;lon;timestamp;P1;durP1;ratioP1;P2;durP2;ratioP2
62475;SDS011;50739;45.670;11.936;2024-03-07T00:00:38;2.47;;;1.20;;
62475;SDS011;50739;45.670;11.936;2024-03-07T00:05:41;1.30;;;1.10;;
62475;SDS011;50739;45.670;11.936;2024-03-07T00:10:45;1.65;;;1.20;;
62475;SDS011;50739;45.670;11.936;2024-03-07T00:15:50;2.10;;;1.23;;
62475;SDS011;50739;45.670;11.936;2024-03-07T00:20:53;1.73;;;1.30;;
62475;SDS011;50739;45.670;11.936;2024-03-07T00:25:57;2.05;;;1.40;;
62475;SDS011;50739;45.670;11.936;2024-03-07T00:31:00;3.73;;;1.67;;
62475;SDS011;50739;45.670;11.936;2024-03-07T00:36:04;2.55;;;1.70;;
62475;SDS011;50739;45.670;11.936;2024-03-07T00:41:09;3.10;;;2.03;;
62475;SDS011;50739;45.670;11.936;2024-03-07T00:46:12;3.45;;;2.17;;
62475;SDS011;50739;45.670;11.936;2024-03-07T00:51:14;3.25;;;1.90;;
62475;SDS011;50739;45.670;11.936;2024-03-07T00:56:18;3.30;;;2.35;;
62475;SDS011;50739;45.670;11.936;2024-03-07T01:01:21;3.47;;;2.22;;
62475;SDS011;50739;45.670;11.936;2024-03-07T01:06:24;2.63;;;2.00;;
62475;SDS011;50739;45.670;11.936;2024-03-07T01:11:27;4.40;;;2.10;;
62475;SDS011;50739;45.670;11.936;2024-03-07T01:16:30;2.60;;;2.20;;
62475;SDS011;50739;45.670;11.936;2024-03-07T01:21:32;3.13;;;2.10;;
62475;SDS011;50739;45.670;11.936;2024-03-07T01:26:36;2.65;;;2.03;;
62475;SDS011;50739;45.670;11.936;2024-03-07T01:31:39;3.75;;;2.65;;
62475;SDS011;50739;45.670;11.936;2024-03-07T01:36:42;3.35;;;2.15;;
62475;SDS011;50739;45.670;11.936;2024-03-07T01:41:46;3.28;;;2.45;;
62475;SDS011;50739;45.670;11.936;2024-03-07T01:46:49;4.20;;;2.50;;
62475;SDS011;50739;45.670;11.936;2024-03-07T01:51:52;3.40;;;2.50;;
62475;SDS011;50739;45.670;11.936;2024-03-07T01:56:56;2.73;;;2.33;;
62475;SDS011;50739;45.670;11.936;2024-03-07T02:01:59;3.75;;;2.40;;
62475;SDS011;50739;45.670;11.936;2024-03-07T02:07:02;3.25;;;2.00;;
62475;SDS011;50739;45.670;11.936;2024-03-07T02:12:07;4.00;;;2.53;;
62475;SDS011;50739;45.670;11.936;2024-03-07T02:17:10;3.22;;;2.40;;
62475;SDS011;50739;45.670;11.936;2024-03-07T02:22:14;2.78;;;2.45;;
62475;SDS011;50739;45.670;11.936;2024-03-07T02:27:16;2.97;;;2.35;;
62475;SDS011;50739;45.670;11.936;2024-03-07T02:32:19;3.97;;;2.43;;
62475;SDS011;50739;45.670;11.936;2024-03-07T02:37:22;4.33;;;2.90;;
62475;SDS011;50739;45.670;11.936;2024-03-07T02:42:25;3.92;;;2.50;;
62475;SDS011;50739;45.670;11.936;2024-03-07T02:47:27;3.90;;;2.55;;
62475;SDS011;50739;45.670;11.936;2024-03-07T02:52:32;3.63;;;2.63;;
62475;SDS011;50739;45.670;11.936;2024-03-07T02:57:34;4.20;;;2.47;;
62475;SDS011;50739;45.670;11.936;2024-03-07T03:02:36;4.57;;;2.67;;
62475;SDS011;50739;45.670;11.936;2024-03-07T03:07:41;4.47;;;2.80;;
62475;SDS011;50739;45.670;11.936;2024-03-07T03:12:45;3.38;;;2.80;;
62475;SDS011;50739;45.670;11.936;2024-03-07T03:17:47;4.00;;;2.73;;
62475;SDS011;50739;45.670;11.936;2024-03-07T03:22:52;4.32;;;2.85;;
62475;SDS011;50739;45.670;11.936;2024-03-07T03:27:55;5.07;;;3.15;;
62475;SDS011;50739;45.670;11.936;2024-03-07T03:32:57;3.70;;;3.15;;
62475;SDS011;50739;45.670;11.936;2024-03-07T03:38:01;4.50;;;3.30;;
62475;SDS011;50739;45.670;11.936;2024-03-07T03:43:04;4.20;;;3.30;;
62475;SDS011;50739;45.670;11.936;2024-03-07T03:48:07;5.45;;;4.13;;
62475;SDS011;50739;45.670;11.936;2024-03-07T03:53:10;6.47;;;4.30;;
62475;SDS011;50739;45.670;11.936;2024-03-07T03:58:13;7.03;;;4.60;;
62475;SDS011;50739;45.670;11.936;2024-03-07T04:03:15;6.57;;;4.90;;
62475;SDS011;50739;45.670;11.936;2024-03-07T04:08:19;5.72;;;4.60;;
62475;SDS011;50739;45.670;11.936;2024-03-07T04:13:22;5.30;;;4.50;;
62475;SDS011;50739;45.670;11.936;2024-03-07T04:18:24;6.53;;;4.93;;
62475;SDS011;50739;45.670;11.936;2024-03-07T04:23:28;6.57;;;4.70;;
62475;SDS011;50739;45.670;11.936;2024-03-07T04:28:31;7.10;;;4.80;;
62475;SDS011;50739;45.670;11.936;2024-03-07T04:33:33;6.82;;;4.43;;
62475;SDS011;50739;45.670;11.936;2024-03-07T04:38:37;6.32;;;5.00;;
62475;SDS011;50739;45.670;11.936;2024-03-07T04:43:44;6.13;;;4.97;;
62475;SDS011;50739;45.670;11.936;2024-03-07T04:48:47;6.85;;;4.80;;
62475;SDS011;50739;45.670;11.936;2024-03-07T04:53:51;7.45;;;4.93;;
62475;SDS011;50739;45.670;11.936;2024-03-07T04:58:53;6.35;;;5.55;;
62475;SDS011;50739;45.670;11.936;2024-03-07T05:03:56;6.35;;;5.22;;
62475;SDS011;50739;45.670;11.936;2024-03-07T05:09:00;5.20;;;4.50;;
62475;SDS011;50739;45.670;11.936;2024-03-07T05:14:03;6.90;;;5.07;;
62475;SDS011;50739;45.670;11.936;2024-03-07T05:19:05;7.00;;;4.80;;
62475;SDS011;50739;45.670;11.936;2024-03-07T05:24:10;7.75;;;5.20;;
62475;SDS011;50739;45.670;11.936;2024-03-07T05:29:12;6.55;;;5.40;;
62475;SDS011;50739;45.670;11.936;2024-03-07T05:34:16;5.53;;;4.68;;
62475;SDS011;50739;45.670;11.936;2024-03-07T05:39:21;6.57;;;5.00;;
62475;SDS011;50739;45.670;11.936;2024-03-07T05:44:25;8.13;;;4.85;;
62475;SDS011;50739;45.670;11.936;2024-03-07T05:49:28;12.25;;;6.65;;
62475;SDS011;50739;45.670;11.936;2024-03-07T05:54:33;15.43;;;8.13;;
62475;SDS011;50739;45.670;11.936;2024-03-07T05:59:36;17.52;;;8.65;;
62475;SDS011;50739;45.670;11.936;2024-03-07T06:04:39;8.07;;;5.47;;
62475;SDS011;50739;45.670;11.936;2024-03-07T06:09:43;5.73;;;4.53;;
62475;SDS011;50739;45.670;11.936;2024-03-07T06:14:46;6.27;;;4.83;;
62475;SDS011;50739;45.670;11.936;2024-03-07T06:19:49;6.13;;;4.57;;
62475;SDS011;50739;45.670;11.936;2024-03-07T06:24:53;7.20;;;4.15;;
62475;SDS011;50739;45.670;11.936;2024-03-07T06:30:07;7.65;;;4.20;;
62475;SDS011;50739;45.670;11.936;2024-03-07T06:35:10;5.72;;;3.55;;
62475;SDS011;50739;45.670;11.936;2024-03-07T06:40:14;6.65;;;3.70;;
62475;SDS011;50739;45.670;11.936;2024-03-07T06:45:22;4.90;;;3.80;;
62475;SDS011;50739;45.670;11.936;2024-03-07T06:50:25;6.07;;;4.10;;
62475;SDS011;50739;45.670;11.936;2024-03-07T06:55:31;5.18;;;3.80;;
62475;SDS011;50739;45.670;11.936;2024-03-07T07:00:34;6.85;;;4.47;;
62475;SDS011;50739;45.670;11.936;2024-03-07T07:05:37;8.13;;;4.72;;
62475;SDS011;50739;45.670;11.936;2024-03-07T07:10:42;7.50;;;4.87;;
62475;SDS011;50739;45.670;11.936;2024-03-07T07:15:45;6.30;;;4.25;;
62475;SDS011;50739;45.670;11.936;2024-03-07T07:20:47;7.60;;;4.60;;
62475;SDS011;50739;45.670;11.936;2024-03-07T07:25:51;7.53;;;4.95;;
62475;SDS011;50739;45.670;11.936;2024-03-07T07:30:53;11.07;;;6.25;;
62475;SDS011;50739;45.670;11.936;2024-03-07T07:35:56;12.38;;;7.40;;
62475;SDS011;50739;45.670;11.936;2024-03-07T07:41:00;11.20;;;7.30;;
62475;SDS011;50739;45.670;11.936;2024-03-07T07:46:03;8.02;;;5.47;;
62475;SDS011;50739;45.670;11.936;2024-03-07T07:56:12;9.48;;;5.88;;
62475;SDS011;50739;45.670;11.936;2024-03-07T08:01:14;9.75;;;5.63;;
62475;SDS011;50739;45.670;11.936;2024-03-07T08:06:17;8.88;;;5.35;;
62475;SDS011;50739;45.670;11.936;2024-03-07T08:11:21;9.57;;;5.70;;
62475;SDS011;50739;45.670;11.936;2024-03-07T08:16:23;9.67;;;5.83;;
62475;SDS011;50739;45.670;11.936;2024-03-07T08:21:25;10.30;;;6.70;;
62475;SDS011;50739;45.670;11.936;2024-03-07T08:26:29;12.07;;;7.17;;
62475;SDS011;50739;45.670;11.936;2024-03-07T08:31:33;13.07;;;7.07;;
62475;SDS011;50739;45.670;11.936;2024-03-07T08:36:36;12.25;;;6.75;;
62475;SDS011;50739;45.670;11.936;2024-03-07T08:41:41;10.57;;;6.07;;
62475;SDS011;50739;45.670;11.936;2024-03-07T08:46:47;12.77;;;6.60;;
62475;SDS011;50739;45.670;11.936;2024-03-07T08:51:49;7.80;;;5.43;;
62475;SDS011;50739;45.670;11.936;2024-03-07T08:56:53;8.27;;;5.10;;
62475;SDS011;50739;45.670;11.936;2024-03-07T09:01:55;6.82;;;3.97;;
62475;SDS011;50739;45.670;11.936;2024-03-07T09:07:00;5.97;;;3.72;;
62475;SDS011;50739;45.670;11.936;2024-03-07T09:12:04;7.50;;;3.88;;
62475;SDS011;50739;45.670;11.936;2024-03-07T09:17:07;7.73;;;4.60;;
62475;SDS011;50739;45.670;11.936;2024-03-07T09:22:09;10.00;;;4.55;;
62475;SDS011;50739;45.670;11.936;2024-03-07T09:27:13;7.18;;;4.45;;
62475;SDS011;50739;45.670;11.936;2024-03-07T09:32:20;8.52;;;5.10;;
62475;SDS011;50739;45.670;11.936;2024-03-07T09:37:24;9.48;;;4.97;;
62475;SDS011;50739;45.670;11.936;2024-03-07T09:42:29;8.95;;;5.30;;
62475;SDS011;50739;45.670;11.936;2024-03-07T09:47:32;9.70;;;6.23;;
62475;SDS011;50739;45.670;11.936;2024-03-07T09:52:34;9.32;;;5.72;;
62475;SDS011;50739;45.670;11.936;2024-03-07T09:57:38;9.15;;;5.15;;
62475;SDS011;50739;45.670;11.936;2024-03-07T10:02:40;8.47;;;4.83;;
62475;SDS011;50739;45.670;11.936;2024-03-07T10:07:45;7.23;;;4.23;;
62475;SDS011;50739;45.670;11.936;2024-03-07T10:12:49;8.10;;;5.72;;
62475;SDS011;50739;45.670;11.936;2024-03-07T10:17:53;10.60;;;6.47;;
62475;SDS011;50739;45.670;11.936;2024-03-07T10:22:55;12.00;;;6.70;;
62475;SDS011;50739;45.670;11.936;2024-03-07T10:27:59;12.82;;;6.95;;
62475;SDS011;50739;45.670;11.936;2024-03-07T10:33:02;13.32;;;6.93;;
62475;SDS011;50739;45.670;11.936;2024-03-07T10:38:04;10.20;;;5.68;;
62475;SDS011;50739;45.670;11.936;2024-03-07T10:43:10;9.90;;;5.40;;
62475;SDS011;50739;45.670;11.936;2024-03-07T10:48:16;9.50;;;5.10;;
62475;SDS011;50739;45.670;11.936;2024-03-07T10:53:20;7.97;;;4.30;;
62475;SDS011;50739;45.670;11.936;2024-03-07T10:58:36;5.03;;;3.38;;
62475;SDS011;50739;45.670;11.936;2024-03-07T11:03:44;6.78;;;4.22;;
62475;SDS011;50739;45.670;11.936;2024-03-07T11:08:47;8.63;;;4.78;;
62475;SDS011;50739;45.670;11.936;2024-03-07T11:13:51;7.23;;;4.20;;
62475;SDS011;50739;45.670;11.936;2024-03-07T11:24:23;6.83;;;4.27;;
62475;SDS011;50739;45.670;11.936;2024-03-07T11:29:40;5.80;;;3.80;;
62475;SDS011;50739;45.670;11.936;2024-03-07T11:34:47;5.93;;;3.70;;
62475;SDS011;50739;45.670;11.936;2024-03-07T11:39:50;7.20;;;3.33;;
62475;SDS011;50739;45.670;11.936;2024-03-07T11:44:58;6.05;;;3.00;;
62475;SDS011;50739;45.670;11.936;2024-03-07T11:50:04;5.45;;;2.90;;
62475;SDS011;50739;45.670;11.936;2024-03-07T11:55:12;4.33;;;2.77;;
62475;SDS011;50739;45.670;11.936;2024-03-07T12:00:18;4.38;;;2.63;;
62475;SDS011;50739;45.670;11.936;2024-03-07T12:05:24;5.20;;;3.40;;
62475;SDS011;50739;45.670;11.936;2024-03-07T12:10:27;5.72;;;3.70;;
62475;SDS011;50739;45.670;11.936;2024-03-07T12:15:31;4.70;;;3.13;;
62475;SDS011;50739;45.670;11.936;2024-03-07T12:20:36;6.28;;;3.08;;
62475;SDS011;50739;45.670;11.936;2024-03-07T12:25:39;5.57;;;2.90;;
62475;SDS011;50739;45.670;11.936;2024-03-07T12:30:50;4.80;;;2.90;;
62475;SDS011;50739;45.670;11.936;2024-03-07T12:35:54;6.30;;;3.95;;
62475;SDS011;50739;45.670;11.936;2024-03-07T12:41:06;7.68;;;4.40;;
62475;SDS011;50739;45.670;11.936;2024-03-07T12:46:16;5.75;;;3.35;;
62475;SDS011;50739;45.670;11.936;2024-03-07T12:51:19;4.93;;;3.42;;
62475;SDS011;50739;45.670;11.936;2024-03-07T12:56:23;8.03;;;3.53;;
62475;SDS011;50739;45.670;11.936;2024-03-07T13:01:27;7.03;;;3.90;;
62475;SDS011;50739;45.670;11.936;2024-03-07T13:06:29;7.32;;;4.28;;
62475;SDS011;50739;45.670;11.936;2024-03-07T13:11:32;6.85;;;4.22;;
62475;SDS011;50739;45.670;11.936;2024-03-07T13:16:35;5.50;;;3.60;;
62475;SDS011;50739;45.670;11.936;2024-03-07T13:21:38;6.65;;;4.40;;
62475;SDS011;50739;45.670;11.936;2024-03-07T13:26:41;7.40;;;4.90;;
62475;SDS011;50739;45.670;11.936;2024-03-07T13:31:46;5.47;;;3.57;;
62475;SDS011;50739;45.670;11.936;2024-03-07T13:36:48;7.25;;;4.13;;
62475;SDS011;50739;45.670;11.936;2024-03-07T13:41:51;5.53;;;3.50;;
62475;SDS011;50739;45.670;11.936;2024-03-07T13:46:55;4.63;;;3.05;;
62475;SDS011;50739;45.670;11.936;2024-03-07T13:52:00;5.40;;;2.93;;
62475;SDS011;50739;45.670;11.936;2024-03-07T13:57:16;12.50;;;6.90;;
62475;SDS011;50739;45.670;11.936;2024-03-07T14:02:36;6.87;;;3.90;;
62475;SDS011;50739;45.670;11.936;2024-03-07T14:07:58;5.17;;;2.93;;
62475;SDS011;50739;45.670;11.936;2024-03-07T14:13:20;2.10;;;1.73;;
62475;SDS011;50739;45.670;11.936;2024-03-07T14:18:58;7.30;;;4.15;;
62475;SDS011;50739;45.670;11.936;2024-03-07T14:30:24;4.88;;;2.75;;
62475;SDS011;50739;45.670;11.936;2024-03-07T14:41:04;4.05;;;2.63;;
62475;SDS011;50739;45.670;11.936;2024-03-07T14:46:08;15.10;;;6.57;;
62475;SDS011;50739;45.670;11.936;2024-03-07T14:51:14;4.10;;;2.78;;
62475;SDS011;50739;45.670;11.936;2024-03-07T14:56:17;8.30;;;4.63;;
62475;SDS011;50739;45.670;11.936;2024-03-07T15:01:20;9.15;;;5.50;;
62475;SDS011;50739;45.670;11.936;2024-03-07T15:06:25;12.10;;;7.13;;
62475;SDS011;50739;45.670;11.936;2024-03-07T15:11:33;7.47;;;4.67;;
62475;SDS011;50739;45.670;11.936;2024-03-07T15:16:36;3.90;;;2.38;;
62475;SDS011;50739;45.670;11.936;2024-03-07T15:21:41;4.45;;;2.65;;
62475;SDS011;50739;45.670;11.936;2024-03-07T15:26:43;5.38;;;2.80;;
62475;SDS011;50739;45.670;11.936;2024-03-07T15:31:46;4.67;;;2.50;;
62475;SDS011;50739;45.670;11.936;2024-03-07T15:36:56;3.65;;;2.50;;
62475;SDS011;50739;45.670;11.936;2024-03-07T15:42:05;3.92;;;2.38;;
62475;SDS011;50739;45.670;11.936;2024-03-07T15:47:10;5.70;;;2.67;;
62475;SDS011;50739;45.670;11.936;2024-03-07T15:52:14;4.77;;;2.37;;
62475;SDS011;50739;45.670;11.936;2024-03-07T15:57:19;4.17;;;2.70;;
62475;SDS011;50739;45.670;11.936;2024-03-07T16:02:22;4.93;;;2.83;;
62475;SDS011;50739;45.670;11.936;2024-03-07T16:07:26;5.93;;;2.97;;
62475;SDS011;50739;45.670;11.936;2024-03-07T16:12:28;8.30;;;5.05;;
62475;SDS011;50739;45.670;11.936;2024-03-07T16:17:34;6.47;;;4.30;;
62475;SDS011;50739;45.670;11.936;2024-03-07T16:22:41;6.83;;;4.43;;
62475;SDS011;50739;45.670;11.936;2024-03-07T16:27:44;11.18;;;4.53;;
62475;SDS011;50739;45.670;11.936;2024-03-07T16:32:48;5.93;;;4.05;;
62475;SDS011;50739;45.670;11.936;2024-03-07T16:37:57;6.87;;;4.23;;
62475;SDS011;50739;45.670;11.936;2024-03-07T16:43:00;5.27;;;3.63;;
62475;SDS011;50739;45.670;11.936;2024-03-07T16:48:08;9.88;;;4.82;;
62475;SDS011;50739;45.670;11.936;2024-03-07T16:53:13;9.15;;;5.70;;
62475;SDS011;50739;45.670;11.936;2024-03-07T16:58:16;11.80;;;6.87;;
62475;SDS011;50739;45.670;11.936;2024-03-07T17:03:19;10.90;;;6.67;;
62475;SDS011;50739;45.670;11.936;2024-03-07T17:08:26;10.50;;;6.10;;
62475;SDS011;50739;45.670;11.936;2024-03-07T17:13:29;12.55;;;7.47;;
62475;SDS011;50739;45.670;11.936;2024-03-07T17:18:31;10.67;;;6.30;;
62475;SDS011;50739;45.670;11.936;2024-03-07T17:23:36;12.73;;;8.90;;
62475;SDS011;50739;45.670;11.936;2024-03-07T17:28:38;14.57;;;10.25;;
62475;SDS011;50739;45.670;11.936;2024-03-07T17:33:41;14.85;;;9.10;;
62475;SDS011;50739;45.670;11.936;2024-03-07T17:38:45;13.30;;;8.65;;
62475;SDS011;50739;45.670;11.936;2024-03-07T17:43:47;10.65;;;7.15;;
62475;SDS011;50739;45.670;11.936;2024-03-07T17:48:50;11.23;;;6.30;;
62475;SDS011;50739;45.670;11.936;2024-03-07T17:53:54;12.23;;;7.10;;
62475;SDS011;50739;45.670;11.936;2024-03-07T17:58:57;15.95;;;7.60;;
62475;SDS011;50739;45.670;11.936;2024-03-07T18:03:59;15.20;;;9.43;;
62475;SDS011;50739;45.670;11.936;2024-03-07T18:09:08;12.00;;;8.15;;
62475;SDS011;50739;45.670;11.936;2024-03-07T18:14:28;13.57;;;8.32;;
62475;SDS011;50739;45.670;11.936;2024-03-07T18:19:33;16.05;;;9.48;;
62475;SDS011;50739;45.670;11.936;2024-03-07T18:24:37;12.25;;;8.38;;
62475;SDS011;50739;45.670;11.936;2024-03-07T18:29:39;10.87;;;7.87;;
62475;SDS011;50739;45.670;11.936;2024-03-07T18:34:42;13.38;;;7.95;;
62475;SDS011;50739;45.670;11.936;2024-03-07T18:39:48;12.57;;;7.90;;
62475;SDS011;50739;45.670;11.936;2024-03-07T18:44:52;12.00;;;7.88;;
62475;SDS011;50739;45.670;11.936;2024-03-07T18:49:56;11.23;;;6.78;;
62475;SDS011;50739;45.670;11.936;2024-03-07T18:55:00;10.65;;;6.47;;
62475;SDS011;50739;45.670;11.936;2024-03-07T19:00:20;8.40;;;5.05;;
62475;SDS011;50739;45.670;11.936;2024-03-07T19:05:38;7.53;;;4.40;;
62475;SDS011;50739;45.670;11.936;2024-03-07T19:10:50;6.88;;;4.20;;
62475;SDS011;50739;45.670;11.936;2024-03-07T19:15:53;9.27;;;5.47;;
62475;SDS011;50739;45.670;11.936;2024-03-07T19:20:57;9.30;;;6.00;;
62475;SDS011;50739;45.670;11.936;2024-03-07T19:26:01;10.77;;;6.32;;
62475;SDS011;50739;45.670;11.936;2024-03-07T19:31:09;12.05;;;6.85;;
62475;SDS011;50739;45.670;11.936;2024-03-07T19:36:14;12.23;;;7.20;;
62475;SDS011;50739;45.670;11.936;2024-03-07T19:41:18;11.35;;;6.40;;
62475;SDS011;50739;45.670;11.936;2024-03-07T19:46:23;12.88;;;7.30;;
62475;SDS011;50739;45.670;11.936;2024-03-07T19:51:28;10.50;;;6.70;;
62475;SDS011;50739;45.670;11.936;2024-03-07T19:56:33;10.57;;;6.15;;
62475;SDS011;50739;45.670;11.936;2024-03-07T20:01:35;10.55;;;6.03;;
62475;SDS011;50739;45.670;11.936;2024-03-07T20:06:39;8.70;;;5.43;;
62475;SDS011;50739;45.670;11.936;2024-03-07T20:11:42;9.80;;;5.67;;
62475;SDS011;50739;45.670;11.936;2024-03-07T20:16:47;8.80;;;5.67;;
62475;SDS011;50739;45.670;11.936;2024-03-07T20:21:50;10.02;;;5.57;;
62475;SDS011;50739;45.670;11.936;2024-03-07T20:26:54;8.93;;;5.78;;
62475;SDS011;50739;45.670;11.936;2024-03-07T20:31:57;9.40;;;5.82;;
62475;SDS011;50739;45.670;11.936;2024-03-07T20:37:00;8.82;;;5.40;;
62475;SDS011;50739;45.670;11.936;2024-03-07T20:42:04;9.53;;;5.47;;
62475;SDS011;50739;45.670;11.936;2024-03-07T20:47:10;10.25;;;5.05;;
62475;SDS011;50739;45.670;11.936;2024-03-07T20:52:13;7.93;;;5.20;;
62475;SDS011;50739;45.670;11.936;2024-03-07T20:57:17;8.63;;;5.50;;
62475;SDS011;50739;45.670;11.936;2024-03-07T21:02:19;9.60;;;5.27;;
62475;SDS011;50739;45.670;11.936;2024-03-07T21:07:22;9.25;;;5.32;;
62475;SDS011;50739;45.670;11.936;2024-03-07T21:12:26;13.90;;;8.60;;
62475;SDS011;50739;45.670;11.936;2024-03-07T21:17:29;10.73;;;6.80;;
62475;SDS011;50739;45.670;11.936;2024-03-07T21:22:40;9.38;;;5.45;;
62475;SDS011;50739;45.670;11.936;2024-03-07T21:27:45;9.27;;;6.03;;
62475;SDS011;50739;45.670;11.936;2024-03-07T21:32:51;10.50;;;5.57;;
62475;SDS011;50739;45.670;11.936;2024-03-07T21:37:54;9.55;;;6.10;;
62475;SDS011;50739;45.670;11.936;2024-03-07T21:42:58;8.90;;;5.97;;
62475;SDS011;50739;45.670;11.936;2024-03-07T21:48:04;11.30;;;6.57;;
62475;SDS011;50739;45.670;11.936;2024-03-07T21:53:08;8.05;;;5.38;;
62475;SDS011;50739;45.670;11.936;2024-03-07T21:58:13;8.70;;;5.35;;
62475;SDS011;50739;45.670;11.936;2024-03-07T22:03:17;9.35;;;5.28;;
62475;SDS011;50739;45.670;11.936;2024-03-07T22:08:19;7.88;;;5.05;;
62475;SDS011;50739;45.670;11.936;2024-03-07T22:13:23;7.60;;;4.93;;
62475;SDS011;50739;45.670;11.936;2024-03-07T22:18:26;8.63;;;5.65;;
62475;SDS011;50739;45.670;11.936;2024-03-07T22:23:31;8.43;;;4.80;;
62475;SDS011;50739;45.670;11.936;2024-03-07T22:28:35;8.93;;;4.37;;
62475;SDS011;50739;45.670;11.936;2024-03-07T22:33:38;9.70;;;4.95;;
62475;SDS011;50739;45.670;11.936;2024-03-07T22:38:41;7.68;;;4.50;;
62475;SDS011;50739;45.670;11.936;2024-03-07T22:43:45;8.03;;;4.40;;
62475;SDS011;50739;45.670;11.936;2024-03-07T22:48:51;8.05;;;4.70;;
62475;SDS011;50739;45.670;11.936;2024-03-07T22:53:53;7.87;;;5.10;;
62475;SDS011;50739;45.670;11.936;2024-03-07T22:58:57;8.73;;;5.53;;
62475;SDS011;50739;45.670;11.936;2024-03-07T23:04:00;8.83;;;5.17;;
62475;SDS011;50739;45.670;11.936;2024-03-07T23:09:05;8.05;;;4.40;;
62475;SDS011;50739;45.670;11.936;2024-03-07T23:14:10;7.80;;;4.83;;
62475;SDS011;50739;45.670;11.936;2024-03-07T23:19:13;8.40;;;5.10;;
62475;SDS011;50739;45.670;11.936;2024-03-07T23:24:15;7.07;;;4.82;;
62475;SDS011;50739;45.670;11.936;2024-03-07T23:29:19;8.43;;;5.35;;
62475;SDS011;50739;45.670;11.936;2024-03-07T23:34:22;9.23;;;4.80;;
62475;SDS011;50739;45.670;11.936;2024-03-07T23:39:24;8.90;;;5.07;;
62475;SDS011;50739;45.670;11.936;2024-03-07T23:44:28;8.13;;;5.05;;
62475;SDS011;50739;45.670;11.936;2024-03-07T23:49:31;9.30;;;5.30;;
62475;SDS011;50739;45.670;11.936;2024-03-07T23:54:34;7.18;;;4.47;;
62475;SDS011;50739;45.670;11.936;2024-03-07T23:59:38;7.27;;;4.57;;
